sensor_id;sensor_type;location;lat;lon;timestamp;P1;durP1;ratioP1;P2;durP2;ratioP2
25868;SDS011;13688;53.154;18.136;2022-10-22T00:00:16;37.03;;;23.20;;
25868;SDS011;13688;53.154;18.136;2022-10-22T00:05:41;41.63;;;24.97;;
25868;SDS011;13688;53.154;18.136;2022-10-22T00:11:11;46.58;;;25.43;;
25868;SDS011;13688;53.154;18.136;2022-10-22T00:16:32;41.35;;;24.72;;
25868;SDS011;13688;53.154;18.136;2022-10-22T00:21:54;40.52;;;23.70;;
25868;SDS011;13688;53.154;18.136;2022-10-22T00:27:16;42.93;;;24.18;;
25868;SDS011;13688;53.154;18.136;2022-10-22T00:32:39;41.37;;;25.72;;
25868;SDS011;13688;53.154;18.136;2022-10-22T00:38:01;45.88;;;25.60;;
25868;SDS011;13688;53.154;18.136;2022-10-22T00:43:25;38.90;;;24.57;;
25868;SDS011;13688;53.154;18.136;2022-10-22T00:49:06;38.90;;;24.00;;
25868;SDS011;13688;53.154;18.136;2022-10-22T00:54:28;43.50;;;24.32;;
25868;SDS011;13688;53.154;18.136;2022-10-22T00:59:52;39.90;;;24.87;;
25868;SDS011;13688;53.154;18.136;2022-10-22T01:05:16;39.20;;;24.15;;
25868;SDS011;13688;53.154;18.136;2022-10-22T01:10:45;39.90;;;23.65;;
25868;SDS011;13688;53.154;18.136;2022-10-22T01:17:17;41.08;;;24.92;;
25868;SDS011;13688;53.154;18.136;2022-10-22T01:22:17;39.53;;;24.80;;
25868;SDS011;13688;53.154;18.136;2022-10-22T01:27:43;40.25;;;23.95;;
25868;SDS011;13688;53.154;18.136;2022-10-22T01:33:29;39.35;;;23.87;;
25868;SDS011;13688;53.154;18.136;2022-10-22T01:38:53;37.95;;;23.32;;
25868;SDS011;13688;53.154;18.136;2022-10-22T01:44:29;39.33;;;24.77;;
25868;SDS011;13688;53.154;18.136;2022-10-22T01:55:40;45.38;;;25.35;;
25868;SDS011;13688;53.154;18.136;2022-10-22T02:07:06;41.92;;;25.65;;
25868;SDS011;13688;53.154;18.136;2022-10-22T02:12:32;42.43;;;24.98;;
25868;SDS011;13688;53.154;18.136;2022-10-22T02:17:57;46.13;;;24.12;;
25868;SDS011;13688;53.154;18.136;2022-10-22T02:23:22;42.20;;;24.92;;
25868;SDS011;13688;53.154;18.136;2022-10-22T02:28:49;40.70;;;25.82;;
25868;SDS011;13688;53.154;18.136;2022-10-22T02:34:30;37.67;;;24.57;;
25868;SDS011;13688;53.154;18.136;2022-10-22T02:39:53;39.20;;;24.65;;
25868;SDS011;13688;53.154;18.136;2022-10-22T02:45:16;33.55;;;23.70;;
25868;SDS011;13688;53.154;18.136;2022-10-22T02:50:40;36.35;;;23.60;;
25868;SDS011;13688;53.154;18.136;2022-10-22T02:56:02;34.45;;;23.20;;
25868;SDS011;13688;53.154;18.136;2022-10-22T03:01:24;32.55;;;22.40;;
25868;SDS011;13688;53.154;18.136;2022-10-22T03:06:47;33.08;;;22.17;;
25868;SDS011;13688;53.154;18.136;2022-10-22T03:12:09;33.73;;;23.40;;
25868;SDS011;13688;53.154;18.136;2022-10-22T03:17:32;33.15;;;23.40;;
25868;SDS011;13688;53.154;18.136;2022-10-22T03:22:54;35.25;;;23.85;;
25868;SDS011;13688;53.154;18.136;2022-10-22T03:28:18;35.65;;;24.63;;
25868;SDS011;13688;53.154;18.136;2022-10-22T03:33:41;37.55;;;23.80;;
25868;SDS011;13688;53.154;18.136;2022-10-22T03:39:04;32.08;;;22.58;;
25868;SDS011;13688;53.154;18.136;2022-10-22T03:44:28;35.52;;;24.90;;
25868;SDS011;13688;53.154;18.136;2022-10-22T03:49:55;36.23;;;25.08;;
25868;SDS011;13688;53.154;18.136;2022-10-22T03:55:19;37.28;;;26.30;;
25868;SDS011;13688;53.154;18.136;2022-10-22T04:00:41;36.85;;;26.23;;
25868;SDS011;13688;53.154;18.136;2022-10-22T04:06:05;36.42;;;25.48;;
25868;SDS011;13688;53.154;18.136;2022-10-22T04:11:28;37.20;;;25.05;;
25868;SDS011;13688;53.154;18.136;2022-10-22T04:16:50;42.13;;;27.85;;
25868;SDS011;13688;53.154;18.136;2022-10-22T04:22:12;36.98;;;26.70;;
25868;SDS011;13688;53.154;18.136;2022-10-22T04:27:34;36.80;;;25.37;;
25868;SDS011;13688;53.154;18.136;2022-10-22T04:32:57;44.10;;;26.35;;
25868;SDS011;13688;53.154;18.136;2022-10-22T04:38:19;37.00;;;26.40;;
25868;SDS011;13688;53.154;18.136;2022-10-22T04:43:42;41.13;;;27.13;;
25868;SDS011;13688;53.154;18.136;2022-10-22T04:49:05;38.02;;;25.05;;
25868;SDS011;13688;53.154;18.136;2022-10-22T04:54:28;42.58;;;26.12;;
25868;SDS011;13688;53.154;18.136;2022-10-22T04:59:51;38.38;;;26.30;;
25868;SDS011;13688;53.154;18.136;2022-10-22T05:05:13;40.58;;;26.55;;
25868;SDS011;13688;53.154;18.136;2022-10-22T05:10:35;37.05;;;25.90;;
25868;SDS011;13688;53.154;18.136;2022-10-22T05:15:59;38.95;;;25.88;;
25868;SDS011;13688;53.154;18.136;2022-10-22T05:21:22;35.78;;;24.67;;
25868;SDS011;13688;53.154;18.136;2022-10-22T05:26:44;42.58;;;27.80;;
25868;SDS011;13688;53.154;18.136;2022-10-22T05:32:08;43.28;;;27.93;;
25868;SDS011;13688;53.154;18.136;2022-10-22T05:37:31;43.70;;;27.58;;
25868;SDS011;13688;53.154;18.136;2022-10-22T05:42:53;48.35;;;26.48;;
25868;SDS011;13688;53.154;18.136;2022-10-22T05:48:16;43.65;;;26.02;;
25868;SDS011;13688;53.154;18.136;2022-10-22T05:53:39;40.43;;;25.32;;
25868;SDS011;13688;53.154;18.136;2022-10-22T05:59:04;38.50;;;25.72;;
25868;SDS011;13688;53.154;18.136;2022-10-22T06:04:26;38.25;;;25.97;;
25868;SDS011;13688;53.154;18.136;2022-10-22T06:09:49;42.03;;;26.45;;
25868;SDS011;13688;53.154;18.136;2022-10-22T06:15:11;45.17;;;27.02;;
25868;SDS011;13688;53.154;18.136;2022-10-22T06:20:34;42.78;;;25.90;;
25868;SDS011;13688;53.154;18.136;2022-10-22T06:25:57;38.55;;;24.52;;
25868;SDS011;13688;53.154;18.136;2022-10-22T06:31:21;41.25;;;25.27;;
25868;SDS011;13688;53.154;18.136;2022-10-22T06:36:44;38.58;;;24.25;;
25868;SDS011;13688;53.154;18.136;2022-10-22T06:42:06;38.58;;;25.37;;
25868;SDS011;13688;53.154;18.136;2022-10-22T06:47:28;42.50;;;25.75;;
25868;SDS011;13688;53.154;18.136;2022-10-22T06:52:51;43.00;;;26.95;;
25868;SDS011;13688;53.154;18.136;2022-10-22T06:58:13;42.03;;;25.50;;
25868;SDS011;13688;53.154;18.136;2022-10-22T07:03:36;48.85;;;27.58;;
25868;SDS011;13688;53.154;18.136;2022-10-22T07:09:00;52.25;;;28.95;;
25868;SDS011;13688;53.154;18.136;2022-10-22T07:14:23;67.70;;;34.05;;
25868;SDS011;13688;53.154;18.136;2022-10-22T07:19:45;59.75;;;30.65;;
25868;SDS011;13688;53.154;18.136;2022-10-22T07:25:07;51.10;;;27.77;;
25868;SDS011;13688;53.154;18.136;2022-10-22T07:30:29;74.95;;;34.33;;
25868;SDS011;13688;53.154;18.136;2022-10-22T07:36:02;60.98;;;30.68;;
25868;SDS011;13688;53.154;18.136;2022-10-22T07:46:38;60.83;;;29.85;;
25868;SDS011;13688;53.154;18.136;2022-10-22T07:52:01;62.30;;;31.23;;
25868;SDS011;13688;53.154;18.136;2022-10-22T07:57:24;55.15;;;29.70;;
25868;SDS011;13688;53.154;18.136;2022-10-22T08:02:46;55.05;;;28.98;;
25868;SDS011;13688;53.154;18.136;2022-10-22T08:08:10;63.05;;;31.82;;
25868;SDS011;13688;53.154;18.136;2022-10-22T08:13:33;67.97;;;32.83;;
25868;SDS011;13688;53.154;18.136;2022-10-22T08:18:56;57.70;;;30.57;;
25868;SDS011;13688;53.154;18.136;2022-10-22T08:24:36;54.10;;;28.07;;
25868;SDS011;13688;53.154;18.136;2022-10-22T08:29:58;58.50;;;30.27;;
25868;SDS011;13688;53.154;18.136;2022-10-22T08:35:21;67.93;;;33.00;;
25868;SDS011;13688;53.154;18.136;2022-10-22T08:40:46;71.10;;;38.87;;
25868;SDS011;13688;53.154;18.136;2022-10-22T08:46:29;60.23;;;31.40;;
25868;SDS011;13688;53.154;18.136;2022-10-22T08:52:02;61.80;;;32.13;;
25868;SDS011;13688;53.154;18.136;2022-10-22T08:57:41;62.53;;;33.50;;
25868;SDS011;13688;53.154;18.136;2022-10-22T09:03:30;63.20;;;32.70;;
25868;SDS011;13688;53.154;18.136;2022-10-22T09:09:04;51.17;;;28.57;;
25868;SDS011;13688;53.154;18.136;2022-10-22T09:14:30;45.70;;;24.32;;
25868;SDS011;13688;53.154;18.136;2022-10-22T09:25:32;41.33;;;24.70;;
25868;SDS011;13688;53.154;18.136;2022-10-22T09:30:59;40.80;;;23.80;;
25868;SDS011;13688;53.154;18.136;2022-10-22T09:36:31;40.53;;;24.57;;
25868;SDS011;13688;53.154;18.136;2022-10-22T09:41:56;37.80;;;22.20;;
25868;SDS011;13688;53.154;18.136;2022-10-22T09:47:31;38.60;;;24.27;;
25868;SDS011;13688;53.154;18.136;2022-10-22T09:58:59;36.37;;;22.27;;
25868;SDS011;13688;53.154;18.136;2022-10-22T10:04:25;35.40;;;22.20;;
25868;SDS011;13688;53.154;18.136;2022-10-22T10:09:50;32.17;;;20.23;;
25868;SDS011;13688;53.154;18.136;2022-10-22T10:15:28;38.23;;;20.70;;
25868;SDS011;13688;53.154;18.136;2022-10-22T10:26:46;32.77;;;19.10;;
25868;SDS011;13688;53.154;18.136;2022-10-22T10:32:25;34.27;;;19.93;;
25868;SDS011;13688;53.154;18.136;2022-10-22T10:49:53;31.20;;;18.23;;
25868;SDS011;13688;53.154;18.136;2022-10-22T10:55:34;35.00;;;19.45;;
25868;SDS011;13688;53.154;18.136;2022-10-22T11:07:01;44.45;;;23.20;;
25868;SDS011;13688;53.154;18.136;2022-10-22T11:12:38;41.13;;;22.87;;
25868;SDS011;13688;53.154;18.136;2022-10-22T11:18:34;44.10;;;24.10;;
25868;SDS011;13688;53.154;18.136;2022-10-22T11:23:59;54.23;;;27.63;;
25868;SDS011;13688;53.154;18.136;2022-10-22T11:29:43;59.20;;;30.57;;
25868;SDS011;13688;53.154;18.136;2022-10-22T11:35:32;58.02;;;31.68;;
25868;SDS011;13688;53.154;18.136;2022-10-22T11:41:01;56.75;;;27.90;;
25868;SDS011;13688;53.154;18.136;2022-10-22T11:46:24;58.47;;;30.97;;
25868;SDS011;13688;53.154;18.136;2022-10-22T11:52:20;61.37;;;32.58;;
25868;SDS011;13688;53.154;18.136;2022-10-22T11:57:47;63.30;;;35.27;;
25868;SDS011;13688;53.154;18.136;2022-10-22T12:03:15;71.87;;;38.67;;
25868;SDS011;13688;53.154;18.136;2022-10-22T12:20:12;67.53;;;35.98;;
25868;SDS011;13688;53.154;18.136;2022-10-22T12:25:37;52.43;;;27.62;;
25868;SDS011;13688;53.154;18.136;2022-10-22T12:31:00;65.10;;;33.08;;
25868;SDS011;13688;53.154;18.136;2022-10-22T12:36:27;47.27;;;25.95;;
25868;SDS011;13688;53.154;18.136;2022-10-22T12:41:51;54.27;;;29.07;;
25868;SDS011;13688;53.154;18.136;2022-10-22T12:47:15;61.70;;;35.60;;
25868;SDS011;13688;53.154;18.136;2022-10-22T12:52:38;60.23;;;35.43;;
25868;SDS011;13688;53.154;18.136;2022-10-22T12:58:03;51.02;;;29.20;;
25868;SDS011;13688;53.154;18.136;2022-10-22T13:14:29;55.53;;;33.80;;
25868;SDS011;13688;53.154;18.136;2022-10-22T13:25:40;42.67;;;25.90;;
25868;SDS011;13688;53.154;18.136;2022-10-22T13:31:18;38.90;;;24.83;;
25868;SDS011;13688;53.154;18.136;2022-10-22T13:36:42;37.63;;;24.17;;
25868;SDS011;13688;53.154;18.136;2022-10-22T13:42:13;36.10;;;23.73;;
25868;SDS011;13688;53.154;18.136;2022-10-22T13:47:33;21.02;;;12.50;;
25868;SDS011;13688;53.154;18.136;2022-10-22T13:53:02;22.20;;;13.40;;
25868;SDS011;13688;53.154;18.136;2022-10-22T13:58:30;15.95;;;10.18;;
25868;SDS011;13688;53.154;18.136;2022-10-22T14:03:54;16.20;;;9.95;;
25868;SDS011;13688;53.154;18.136;2022-10-22T14:09:20;12.87;;;9.40;;
25868;SDS011;13688;53.154;18.136;2022-10-22T14:14:42;18.17;;;10.27;;
25868;SDS011;13688;53.154;18.136;2022-10-22T14:20:04;16.32;;;10.95;;
25868;SDS011;13688;53.154;18.136;2022-10-22T14:25:33;15.88;;;10.35;;
25868;SDS011;13688;53.154;18.136;2022-10-22T14:30:56;14.40;;;9.53;;
25868;SDS011;13688;53.154;18.136;2022-10-22T14:36:19;14.07;;;9.03;;
25868;SDS011;13688;53.154;18.136;2022-10-22T14:41:42;13.13;;;8.38;;
25868;SDS011;13688;53.154;18.136;2022-10-22T14:47:04;16.73;;;9.30;;
25868;SDS011;13688;53.154;18.136;2022-10-22T14:52:27;11.97;;;8.53;;
25868;SDS011;13688;53.154;18.136;2022-10-22T14:57:51;13.80;;;9.55;;
25868;SDS011;13688;53.154;18.136;2022-10-22T15:03:13;15.38;;;9.48;;
25868;SDS011;13688;53.154;18.136;2022-10-22T15:08:35;10.10;;;7.72;;
25868;SDS011;13688;53.154;18.136;2022-10-22T15:13:57;14.45;;;9.53;;
25868;SDS011;13688;53.154;18.136;2022-10-22T15:19:20;16.45;;;8.93;;
25868;SDS011;13688;53.154;18.136;2022-10-22T15:24:47;16.80;;;9.27;;
25868;SDS011;13688;53.154;18.136;2022-10-22T15:30:11;15.78;;;10.28;;
25868;SDS011;13688;53.154;18.136;2022-10-22T15:35:33;14.60;;;9.98;;
25868;SDS011;13688;53.154;18.136;2022-10-22T15:41:03;20.90;;;11.53;;
25868;SDS011;13688;53.154;18.136;2022-10-22T15:46:26;15.83;;;11.37;;
25868;SDS011;13688;53.154;18.136;2022-10-22T15:51:50;19.13;;;12.80;;
25868;SDS011;13688;53.154;18.136;2022-10-22T15:57:13;18.33;;;12.67;;
25868;SDS011;13688;53.154;18.136;2022-10-22T16:02:35;18.42;;;13.30;;
25868;SDS011;13688;53.154;18.136;2022-10-22T16:07:58;23.52;;;14.28;;
25868;SDS011;13688;53.154;18.136;2022-10-22T16:13:22;21.23;;;14.80;;
25868;SDS011;13688;53.154;18.136;2022-10-22T16:18:44;23.07;;;15.67;;
25868;SDS011;13688;53.154;18.136;2022-10-22T16:24:07;24.90;;;16.43;;
25868;SDS011;13688;53.154;18.136;2022-10-22T16:29:30;24.43;;;15.55;;
25868;SDS011;13688;53.154;18.136;2022-10-22T16:34:52;22.10;;;15.73;;
25868;SDS011;13688;53.154;18.136;2022-10-22T16:40:16;23.13;;;15.23;;
25868;SDS011;13688;53.154;18.136;2022-10-22T16:45:38;22.27;;;14.50;;
25868;SDS011;13688;53.154;18.136;2022-10-22T16:51:08;20.93;;;14.77;;
25868;SDS011;13688;53.154;18.136;2022-10-22T16:56:33;18.37;;;13.68;;
25868;SDS011;13688;53.154;18.136;2022-10-22T17:01:55;22.98;;;15.28;;
25868;SDS011;13688;53.154;18.136;2022-10-22T17:07:19;24.60;;;15.55;;
25868;SDS011;13688;53.154;18.136;2022-10-22T17:12:42;24.43;;;15.72;;
25868;SDS011;13688;53.154;18.136;2022-10-22T17:18:05;20.23;;;14.43;;
25868;SDS011;13688;53.154;18.136;2022-10-22T17:23:27;20.97;;;14.85;;
25868;SDS011;13688;53.154;18.136;2022-10-22T17:28:50;28.73;;;16.77;;
25868;SDS011;13688;53.154;18.136;2022-10-22T17:34:14;25.37;;;16.50;;
25868;SDS011;13688;53.154;18.136;2022-10-22T17:39:37;24.37;;;16.00;;
25868;SDS011;13688;53.154;18.136;2022-10-22T17:44:59;27.27;;;18.30;;
25868;SDS011;13688;53.154;18.136;2022-10-22T17:50:22;28.85;;;17.17;;
25868;SDS011;13688;53.154;18.136;2022-10-22T17:55:47;27.50;;;17.25;;
25868;SDS011;13688;53.154;18.136;2022-10-22T18:01:18;26.83;;;17.50;;
25868;SDS011;13688;53.154;18.136;2022-10-22T18:06:45;21.73;;;16.12;;
25868;SDS011;13688;53.154;18.136;2022-10-22T18:12:08;27.98;;;17.75;;
25868;SDS011;13688;53.154;18.136;2022-10-22T18:17:31;27.22;;;16.15;;
25868;SDS011;13688;53.154;18.136;2022-10-22T18:22:53;28.03;;;17.30;;
25868;SDS011;13688;53.154;18.136;2022-10-22T18:28:16;28.80;;;16.85;;
25868;SDS011;13688;53.154;18.136;2022-10-22T18:33:39;29.18;;;18.62;;
25868;SDS011;13688;53.154;18.136;2022-10-22T18:39:01;30.73;;;20.00;;
25868;SDS011;13688;53.154;18.136;2022-10-22T18:44:26;30.17;;;20.17;;
25868;SDS011;13688;53.154;18.136;2022-10-22T18:49:50;34.95;;;22.25;;
25868;SDS011;13688;53.154;18.136;2022-10-22T18:55:15;35.60;;;22.58;;
25868;SDS011;13688;53.154;18.136;2022-10-22T19:00:38;35.38;;;22.82;;
25868;SDS011;13688;53.154;18.136;2022-10-22T19:06:00;39.70;;;24.45;;
25868;SDS011;13688;53.154;18.136;2022-10-22T19:11:24;41.80;;;24.80;;
25868;SDS011;13688;53.154;18.136;2022-10-22T19:16:47;40.57;;;24.17;;
25868;SDS011;13688;53.154;18.136;2022-10-22T19:22:10;39.98;;;24.65;;
25868;SDS011;13688;53.154;18.136;2022-10-22T19:27:33;48.17;;;25.73;;
25868;SDS011;13688;53.154;18.136;2022-10-22T19:32:58;46.13;;;25.05;;
25868;SDS011;13688;53.154;18.136;2022-10-22T19:38:20;47.23;;;25.65;;
25868;SDS011;13688;53.154;18.136;2022-10-22T19:43:43;47.10;;;27.05;;
25868;SDS011;13688;53.154;18.136;2022-10-22T19:49:08;44.90;;;26.47;;
25868;SDS011;13688;53.154;18.136;2022-10-22T19:54:33;46.63;;;26.02;;
25868;SDS011;13688;53.154;18.136;2022-10-22T19:59:55;46.33;;;25.30;;
25868;SDS011;13688;53.154;18.136;2022-10-22T20:05:18;42.48;;;24.50;;
25868;SDS011;13688;53.154;18.136;2022-10-22T20:10:40;49.83;;;26.77;;
25868;SDS011;13688;53.154;18.136;2022-10-22T20:16:03;48.25;;;27.22;;
25868;SDS011;13688;53.154;18.136;2022-10-22T20:21:27;48.53;;;27.47;;
25868;SDS011;13688;53.154;18.136;2022-10-22T20:27:00;44.90;;;26.40;;
25868;SDS011;13688;53.154;18.136;2022-10-22T20:32:22;48.73;;;27.13;;
25868;SDS011;13688;53.154;18.136;2022-10-22T20:37:46;47.10;;;28.07;;
25868;SDS011;13688;53.154;18.136;2022-10-22T20:43:09;47.33;;;27.47;;
25868;SDS011;13688;53.154;18.136;2022-10-22T20:48:31;49.97;;;27.03;;
25868;SDS011;13688;53.154;18.136;2022-10-22T20:53:53;44.80;;;27.05;;
25868;SDS011;13688;53.154;18.136;2022-10-22T20:59:16;50.57;;;28.17;;
25868;SDS011;13688;53.154;18.136;2022-10-22T21:04:38;45.50;;;26.33;;
25868;SDS011;13688;53.154;18.136;2022-10-22T21:10:00;44.50;;;27.03;;
25868;SDS011;13688;53.154;18.136;2022-10-22T21:15:23;46.47;;;27.00;;
25868;SDS011;13688;53.154;18.136;2022-10-22T21:20:45;42.00;;;25.53;;
25868;SDS011;13688;53.154;18.136;2022-10-22T21:26:08;49.27;;;28.07;;
25868;SDS011;13688;53.154;18.136;2022-10-22T21:31:30;40.88;;;25.75;;
25868;SDS011;13688;53.154;18.136;2022-10-22T21:36:53;43.28;;;26.65;;
25868;SDS011;13688;53.154;18.136;2022-10-22T21:42:15;43.27;;;25.03;;
25868;SDS011;13688;53.154;18.136;2022-10-22T21:47:38;45.70;;;25.57;;
25868;SDS011;13688;53.154;18.136;2022-10-22T21:53:00;42.30;;;23.25;;
25868;SDS011;13688;53.154;18.136;2022-10-22T21:58:24;42.93;;;23.43;;
25868;SDS011;13688;53.154;18.136;2022-10-22T22:03:48;35.83;;;22.40;;
25868;SDS011;13688;53.154;18.136;2022-10-22T22:09:10;33.70;;;20.67;;
25868;SDS011;13688;53.154;18.136;2022-10-22T22:14:33;33.53;;;20.62;;
25868;SDS011;13688;53.154;18.136;2022-10-22T22:19:55;36.90;;;21.63;;
25868;SDS011;13688;53.154;18.136;2022-10-22T22:25:17;37.80;;;21.53;;
25868;SDS011;13688;53.154;18.136;2022-10-22T22:30:39;38.88;;;21.35;;
25868;SDS011;13688;53.154;18.136;2022-10-22T22:36:02;36.60;;;20.68;;
25868;SDS011;13688;53.154;18.136;2022-10-22T22:41:24;34.83;;;21.17;;
25868;SDS011;13688;53.154;18.136;2022-10-22T22:46:46;33.87;;;20.20;;
25868;SDS011;13688;53.154;18.136;2022-10-22T22:52:09;37.35;;;21.30;;
25868;SDS011;13688;53.154;18.136;2022-10-22T22:57:31;33.20;;;19.13;;
25868;SDS011;13688;53.154;18.136;2022-10-22T23:02:53;31.77;;;18.60;;
25868;SDS011;13688;53.154;18.136;2022-10-22T23:08:16;31.33;;;19.27;;
25868;SDS011;13688;53.154;18.136;2022-10-22T23:13:38;35.80;;;18.98;;
25868;SDS011;13688;53.154;18.136;2022-10-22T23:19:02;33.47;;;19.50;;
25868;SDS011;13688;53.154;18.136;2022-10-22T23:24:27;37.37;;;20.03;;
25868;SDS011;13688;53.154;18.136;2022-10-22T23:29:50;32.13;;;18.32;;
25868;SDS011;13688;53.154;18.136;2022-10-22T23:35:12;34.30;;;19.12;;
25868;SDS011;13688;53.154;18.136;2022-10-22T23:40:35;28.90;;;17.92;;
25868;SDS011;13688;53.154;18.136;2022-10-22T23:45:59;29.20;;;17.52;;
25868;SDS011;13688;53.154;18.136;2022-10-22T23:51:23;29.97;;;18.20;;
25868;SDS011;13688;53.154;18.136;2022-10-22T23:56:46;38.80;;;19.10;;
